CheckWX is a tool to help pilots better visualize weather data.  It is not intended as a substitute for an official pre-flight weather briefing.

00:31:45 UTC

KGUS TAF
Grissom ARB Airport
Peru, Indiana, USA
TAF KGUS 221900Z 2219/2401 24015G25KT 9999 BKN029 QNH2966INS TEMPO 2219/2223 24025G35KT 510003 BECMG 2222/2223 24009KT 9999 FEW030 QNH2978INS TX14/2319Z TN04/2312Z

Oct-22@
19:00 UTC

Oct-22 @ 19:00 UTC

Oct-22@
22:00 UTC

Oct-22 @ 22:00 UTC

TAF KGUS 221900Z 2219/2401 24015G25KT 9999 BKN029 QNH2966INS

Expired

Wind
  • 240° at 15 KTS
  • {Gusting to 25 KTS
Cloud Levels
  • Broken at 2,900' AGL

Oct-22@
19:00 UTC

Oct-22 @ 19:00 UTC

Oct-22@
23:00 UTC

Oct-22 @ 23:00 UTC

TEMPO 2219/2223 24025G35KT 510003

Expired

Wind
  • 240° at 25 KTS
  • {Gusting to 35 KTS
Turbulence
< Light turbulence expected at the surface extending to 3,000' AGL

Oct-22@
22:00 UTC

Oct-22 @ 22:00 UTC

Oct-24@
01:00 UTC

Oct-24 @ 01:00 UTC

BECMG 2222/2223 24009KT 9999 FEW030 QNH2978INS TX14/2319Z TN04/2312Z

Becoming

Becoming Conditions expected by Tue, Oct 22, 2019 @ 23:00 UTC

Wind
  • 240° at 9 KTS
Cloud Levels
  • Few at 3,000' AGL